Terminal Aerodrome Forecast
Issued by NWS

Current Version | Previous Version | Text Only | Print | Product List | Glossary On
Versions: 1 2 3 4 5 6 7 8 9 10 11 12 13 14 15 16
263
FTUS42 KMHX 260525
TAFPGV
TAF
KPGV 260525Z 2606/2706 32010G15KT P6SM SKC
     FM261100 31007KT P6SM SKC
     FM262300 VRB02KT P6SM SKC
      AMD LTD TO CLD VIS AND WIND=

USA.gov is the U.S. government's official web portal to all federal, state and local government web resources and services.